createdAt,value
2023-05-05T18:13:05.883Z,1163.52
2023-05-05T18:14:43.842Z,1111.68
2023-05-05T18:16:33.420Z,984.96
2023-05-05T18:18:34.507Z,659.52
2023-05-05T18:19:35.457Z,593.28
2023-05-05T18:20:35.546Z,538.56
2023-05-05T18:21:35.883Z,495.36
2023-05-05T18:22:37.233Z,452.16
2023-05-05T18:23:37.120Z,408.96
2023-05-05T18:24:38.108Z,374.40
2023-05-05T18:25:40.218Z,342.72
2023-05-05T18:26:39.487Z,311.04
2023-05-05T18:27:40.456Z,280.80
2023-05-05T18:30:03.673Z,218.88
2023-05-05T18:31:01.868Z,197.28
2023-05-05T18:32:02.698Z,179.28
2023-05-05T18:33:37.020Z,155.52
2023-05-05T18:34:36.582Z,141.84
2023-05-05T18:35:37.963Z,133.20
2023-05-05T18:36:37.275Z,128.88
2023-05-05T18:37:37.836Z,128.88
2023-05-05T18:38:38.839Z,128.88
2023-05-05T18:39:43.945Z,127.44
2023-05-05T18:40:39.105Z,125.28
2023-05-05T18:41:39.942Z,122.40
2023-05-05T18:42:40.039Z,121.68
2023-05-05T18:43:40.981Z,124.56
2023-05-05T18:44:41.276Z,126.72
2023-05-05T18:45:42.167Z,128.88
2023-05-05T18:46:42.882Z,131.04
2023-05-05T18:47:43.469Z,131.04
2023-05-05T18:48:44.273Z,126.72
2023-05-05T18:49:45.297Z,120.24
2023-05-05T18:50:07.273Z,117.36
2023-05-05T18:51:06.131Z,108.72
2023-05-05T18:52:06.364Z,103.68
2023-05-05T18:53:06.380Z,99.36
2023-05-05T18:54:07.225Z,95.76
2023-05-05T18:55:08.365Z,91.08
2023-05-05T18:56:08.778Z,86.04
2023-05-05T18:57:08.926Z,80.64
2023-05-05T18:58:09.409Z,75.60
2023-05-05T18:59:17.309Z,70.56
2023-05-05T19:00:28.232Z,65.88
2023-05-05T19:01:14.932Z,60.48
2023-05-05T19:01:39.289Z,57.60
2023-05-05T19:02:40.206Z,52.56
2023-05-05T19:03:41.144Z,47.52
2023-05-05T19:04:41.986Z,43.20
2023-05-05T19:05:42.398Z,38.88
2023-05-05T19:06:43.093Z,34.92
2023-05-05T19:07:43.548Z,31.32
2023-05-05T19:08:44.304Z,27.54
2023-05-05T19:09:45.024Z,24.12
2023-05-05T19:10:45.312Z,20.88
2023-05-05T19:11:45.601Z,18.09
2023-05-05T19:12:45.680Z,15.57
2023-05-05T19:13:46.542Z,13.41
2023-05-05T19:14:46.925Z,11.61
2023-05-05T19:15:48.129Z,10.03
2023-05-05T19:16:48.110Z,8.64
2023-05-05T19:17:48.417Z,7.43
2023-05-05T19:18:50.244Z,6.30
2023-05-05T19:19:49.779Z,5.45
2023-05-05T19:20:51.104Z,4.68
2023-05-05T19:21:15.294Z,4.41
2023-05-05T19:22:14.189Z,3.78
2023-05-05T19:23:14.335Z,3.24
2023-05-05T19:24:15.174Z,2.79
2023-05-05T19:25:16.050Z,2.38
2023-05-05T19:26:16.851Z,2.03
2023-05-05T19:28:19.435Z,1.49
2023-05-05T19:32:26.898Z,0.81
2023-05-05T19:32:47.461Z,0.94
2023-05-05T19:33:27.453Z,0.72
2023-05-05T19:34:23.510Z,0.63
2023-05-05T19:35:21.910Z,0.54
2023-05-05T19:37:39.911Z,0.36
2023-05-05T19:38:30.597Z,0.36
2023-05-05T19:43:38.912Z,0.14
2023-05-05T19:44:45.762Z,0.14
2023-05-05T19:45:43.422Z,0.14
2023-05-05T19:48:47.571Z,0.09
2023-05-05T19:49:50.252Z,0.05
2023-05-05T19:50:58.506Z,0.05
2023-05-05T19:51:58.696Z,0.05
2023-05-05T19:55:02.822Z,0.05
2023-05-05T19:56:00.858Z,0.05
2023-05-05T19:57:38.010Z,0.05
2023-05-05T19:58:00.491Z,0.05
2023-05-05T19:59:10.571Z,0.05
2023-05-05T20:00:12.020Z,0.00
2023-05-05T20:05:51.424Z,0.00
2023-05-05T20:06:52.193Z,0.00
2023-05-05T20:07:52.976Z,0.00
2023-05-05T20:08:53.238Z,0.00
2023-05-05T20:09:57.084Z,0.00
2023-05-05T20:10:54.907Z,0.00
2023-05-05T20:11:55.933Z,0.00
2023-05-05T20:12:56.090Z,0.00
2023-05-05T20:13:57.042Z,0.00
2023-05-05T20:14:57.230Z,0.00
2023-05-05T20:15:58.149Z,0.00
2023-05-05T20:17:01.966Z,0.00
2023-05-05T20:17:59.946Z,0.00
2023-05-05T20:19:00.736Z,0.00
2023-05-05T20:20:00.808Z,0.00
2023-05-05T20:21:01.750Z,0.00
2023-05-05T20:22:48.409Z,0.00
2023-05-05T20:23:51.375Z,0.00
2023-05-05T20:24:47.873Z,0.00
2023-05-05T20:25:49.028Z,0.00
2023-05-05T20:26:49.181Z,0.00
2023-05-05T20:27:49.493Z,0.00
2023-05-05T20:30:59.136Z,0.00
2023-05-05T20:32:53.118Z,0.00
2023-05-05T20:33:54.023Z,0.00
2023-05-05T20:34:59.975Z,0.00
2023-05-05T20:35:57.718Z,0.00
2023-05-05T20:37:56.529Z,0.00
2023-05-05T20:38:20.871Z,0.00
2023-05-05T20:39:21.198Z,0.00
2023-05-05T20:40:21.902Z,0.00
2023-05-05T20:41:22.836Z,0.00
2023-05-05T20:42:23.500Z,0.00
2023-05-05T20:43:24.646Z,0.00
2023-05-05T20:44:24.871Z,0.00
2023-05-05T20:45:25.124Z,0.00
2023-05-05T20:46:25.956Z,0.00
2023-05-05T20:47:26.850Z,0.00
2023-05-05T20:48:28.479Z,0.00
2023-05-05T20:49:28.402Z,0.00
2023-05-05T20:50:29.174Z,0.00
2023-05-05T20:51:29.975Z,0.00
2023-05-05T20:52:30.165Z,0.00
2023-05-05T20:53:30.186Z,0.00
2023-05-05T20:54:30.978Z,0.00
2023-05-05T20:55:31.819Z,0.00
2023-05-05T20:56:32.056Z,0.00
2023-05-05T20:57:32.975Z,0.00
2023-05-05T20:58:32.995Z,0.00
2023-05-05T20:59:33.035Z,0.00
2023-05-05T21:00:33.139Z,0.00
2023-05-05T21:01:34.035Z,0.00
2023-05-05T21:02:34.789Z,0.00
2023-05-05T21:03:36.457Z,0.00
2023-05-05T21:04:36.346Z,0.00
2023-05-05T21:05:36.975Z,0.00
2023-05-05T21:05:47.536Z,0.00
2023-05-05T21:06:48.074Z,0.00
2023-05-05T21:07:49.009Z,0.00
2023-05-05T21:08:50.955Z,0.00
2023-05-05T21:09:50.803Z,0.00
2023-05-05T21:10:51.449Z,0.00
2023-05-05T21:11:51.662Z,0.00
2023-05-05T21:12:51.526Z,0.00
2023-05-05T21:13:51.691Z,0.00
2023-05-05T21:14:52.595Z,0.00
2023-05-05T21:15:56.139Z,0.00
2023-05-05T21:16:55.407Z,0.00
2023-05-05T21:17:55.071Z,0.00
2023-05-05T21:18:55.167Z,0.00
2023-05-05T21:19:56.162Z,0.00
2023-05-05T21:20:57.157Z,0.00
2023-05-05T21:21:07.377Z,0.00
2023-05-05T21:22:08.305Z,0.05
2023-05-05T21:23:11.935Z,0.05
2023-05-05T21:24:09.942Z,0.05
2023-05-05T21:25:10.677Z,0.05
2023-05-05T21:26:11.554Z,0.05
2023-05-05T21:27:13.300Z,0.05
2023-05-05T21:28:13.235Z,0.05
2023-05-05T21:29:13.862Z,0.05
2023-05-05T21:30:15.123Z,0.05
2023-05-05T21:32:15.933Z,0.05
2023-05-05T21:32:29.422Z,0.05
2023-05-05T21:33:30.215Z,0.05
2023-05-05T21:34:30.504Z,0.05
2023-05-05T21:35:31.485Z,0.05
2023-05-05T21:36:32.119Z,0.05
2023-05-05T21:37:32.662Z,0.00
2023-05-05T21:38:33.344Z,0.00
2023-05-05T21:39:34.171Z,0.00
2023-05-05T21:40:34.795Z,0.00
2023-05-05T21:41:35.484Z,0.00
2023-05-05T21:42:36.329Z,0.00
2023-05-05T21:43:37.175Z,0.00
2023-05-05T21:44:37.940Z,0.00
2023-05-05T21:45:38.767Z,0.00
2023-05-05T21:46:38.943Z,0.00
2023-05-05T21:47:39.435Z,0.00
2023-05-05T21:48:39.421Z,0.00
2023-05-05T21:49:40.005Z,0.00
2023-05-05T21:50:40.858Z,0.00
2023-05-05T21:51:41.419Z,0.00
2023-05-05T21:52:41.967Z,0.00
2023-05-05T21:53:42.591Z,0.00
2023-05-05T21:54:43.402Z,0.00
2023-05-05T21:55:43.314Z,0.00
2023-05-05T21:56:43.906Z,0.00
2023-05-05T21:57:44.008Z,0.00
2023-05-05T21:58:44.953Z,0.00
2023-05-05T21:59:45.468Z,0.00
2023-05-05T22:00:46.223Z,0.00
2023-05-05T22:01:46.945Z,0.00
2023-05-05T22:02:47.766Z,0.00
2023-05-05T22:03:48.245Z,0.00
2023-05-05T22:04:30.027Z,0.00
2023-05-05T22:05:30.576Z,0.00
2023-05-05T22:06:30.798Z,0.00
2023-05-05T22:07:32.977Z,0.00
2023-05-05T22:08:31.683Z,0.00
2023-05-05T22:09:32.248Z,0.00
2023-05-05T22:10:33.140Z,0.00
2023-05-05T22:11:33.206Z,0.00
2023-05-05T22:12:34.031Z,0.00
2023-05-05T22:13:34.849Z,0.00
2023-05-05T22:14:35.669Z,0.00
2023-05-05T22:15:46.072Z,0.00
2023-05-05T22:16:36.880Z,0.00
2023-05-05T22:17:37.337Z,0.00
2023-05-05T22:18:37.767Z,0.00
2023-05-05T22:19:37.972Z,0.00
2023-05-05T22:20:38.153Z,0.00
2023-05-05T22:21:38.441Z,0.00
2023-05-05T22:22:38.902Z,0.05
2023-05-05T22:23:39.594Z,0.05
2023-05-05T22:24:39.840Z,0.05
2023-05-05T22:25:40.794Z,0.05
2023-05-05T22:26:41.450Z,0.05
2023-05-05T22:27:42.238Z,0.05
2023-05-05T22:28:42.557Z,0.05
2023-05-05T22:29:43.189Z,0.05
2023-05-05T22:30:44.139Z,0.05
2023-05-05T22:31:44.262Z,0.05
2023-05-05T22:32:44.734Z,0.05
2023-05-05T22:33:44.673Z,0.05
2023-05-05T22:34:45.280Z,0.05
2023-05-05T22:35:29.603Z,0.05
2023-05-05T22:37:06.713Z,0.05
2023-05-05T22:38:07.583Z,0.05
2023-05-05T22:39:08.364Z,0.05
2023-05-05T22:40:09.241Z,0.05
2023-05-05T22:41:10.365Z,0.05
2023-05-05T22:42:10.279Z,0.05
2023-05-05T22:43:10.726Z,0.05
2023-05-05T22:44:10.854Z,0.00
2023-05-05T22:45:11.372Z,0.00
2023-05-05T22:46:11.248Z,0.00
2023-05-05T22:47:12.003Z,0.00
2023-05-05T22:48:12.421Z,0.00
2023-05-05T22:49:13.317Z,0.00
2023-05-05T22:50:13.247Z,0.00
2023-05-05T22:51:13.520Z,0.00
2023-05-05T22:52:14.125Z,0.00
2023-05-05T22:53:14.664Z,0.00
2023-05-05T22:54:15.172Z,0.00
2023-05-05T22:55:15.868Z,0.00
2023-05-05T22:56:16.721Z,0.00
2023-05-05T22:57:17.121Z,0.05
2023-05-05T22:58:17.736Z,0.00
2023-05-05T22:59:18.237Z,0.00
2023-05-05T23:00:18.820Z,0.00
2023-05-05T23:01:19.514Z,0.00
2023-05-05T23:02:20.117Z,0.00
2023-05-05T23:03:20.721Z,0.00
2023-05-05T23:04:21.405Z,0.00
2023-05-05T23:05:22.169Z,0.00
2023-05-05T23:06:22.829Z,0.00
2023-05-05T23:07:23.496Z,0.00
2023-05-05T23:08:23.686Z,0.00
2023-05-05T23:09:42.172Z,0.00
2023-05-05T23:10:42.782Z,0.00
2023-05-05T23:11:43.519Z,0.00
2023-05-05T23:12:44.132Z,0.00
2023-05-05T23:13:44.797Z,0.00
2023-05-05T23:14:45.453Z,0.00
2023-05-05T23:15:46.095Z,0.00
2023-05-05T23:16:46.761Z,0.00
2023-05-05T23:17:47.347Z,0.00
2023-05-05T23:18:47.926Z,0.00
2023-05-05T23:19:49.878Z,0.05
2023-05-05T23:22:21.736Z,0.05
2023-05-05T23:23:21.966Z,0.05
2023-05-05T23:24:22.648Z,0.05
2023-05-05T23:25:23.328Z,0.05
2023-05-05T23:26:23.941Z,0.05
2023-05-05T23:27:24.515Z,0.05
2023-05-05T23:28:25.473Z,0.05
2023-05-05T23:29:26.281Z,0.05
2023-05-05T23:30:26.864Z,0.05
2023-05-05T23:31:27.488Z,0.05
2023-05-05T23:32:28.101Z,0.05
2023-05-05T23:33:28.788Z,0.05
2023-05-05T23:34:29.419Z,0.05
2023-05-05T23:35:30.097Z,0.05
2023-05-05T23:36:30.721Z,0.05
2023-05-05T23:37:31.371Z,0.05
2023-05-05T23:38:31.967Z,0.05
2023-05-05T23:39:32.590Z,0.05
2023-05-05T23:40:33.284Z,0.05
2023-05-05T23:41:33.868Z,0.05
2023-05-05T23:42:34.630Z,0.05
2023-05-05T23:43:35.087Z,0.05
2023-05-05T23:44:35.706Z,0.05
2023-05-05T23:45:36.331Z,0.05
2023-05-05T23:46:37.127Z,0.05
2023-05-05T23:47:37.638Z,0.05
2023-05-05T23:48:38.335Z,0.05
2023-05-05T23:49:38.927Z,0.05
2023-05-05T23:50:39.562Z,0.05
2023-05-05T23:51:40.181Z,0.05
2023-05-05T23:52:40.722Z,0.05
2023-05-05T23:53:41.422Z,0.05
2023-05-05T23:54:42.189Z,0.05
2023-05-05T23:54:54.893Z,0.05
2023-05-05T23:55:55.540Z,0.05
2023-05-05T23:56:56.222Z,0.05
2023-05-05T23:57:56.783Z,0.05
2023-05-05T23:58:57.670Z,0.05
2023-05-05T23:59:58.279Z,0.05
